createdAt,value
2019-04-29T00:00:53.093Z,94396.25
2019-04-29T00:03:23.654Z,94388.32
2019-04-29T00:05:54.412Z,94383.84
2019-04-29T00:08:24.812Z,94384.81
2019-04-29T00:10:55.094Z,94385.05
2019-04-29T00:13:25.617Z,94382.93
2019-04-29T00:16:25.958Z,94381.75
2019-04-29T00:19:13.717Z,94382.49
2019-04-29T00:21:44.128Z,94380.45
2019-04-29T00:24:14.549Z,94375.97
2019-04-29T00:26:45.034Z,94369.97
2019-04-29T00:29:15.408Z,94365.30
2019-04-29T00:31:46.773Z,94365.48
2019-04-29T00:34:17.384Z,94363.63
2019-04-29T00:37:05.368Z,94366.92
2019-04-29T00:39:54.315Z,94366.08
2019-04-29T00:42:46.580Z,94358.58
2019-04-29T00:45:17.412Z,94366.86
2019-04-29T00:47:47.652Z,94362.64
2019-04-29T00:50:18.679Z,94363.38
2019-04-29T00:52:49.087Z,94362.21
2019-04-29T00:55:22.049Z,94364.05
2019-04-29T00:57:52.568Z,94370.73
2019-04-29T01:00:36.826Z,94357.95
2019-04-29T01:03:07.928Z,94361.14
2019-04-29T01:05:39.047Z,94368.17
2019-04-29T01:08:09.373Z,94362.38
2019-04-29T01:10:40.132Z,94366.66
2019-04-29T01:13:10.894Z,94375.19
2019-04-29T01:15:41.170Z,94360.09
2019-04-29T01:18:12.617Z,94364.59
2019-04-29T01:20:42.975Z,94362.83
2019-04-29T01:23:13.286Z,94354.30
2019-04-29T01:25:45.211Z,94360.15
2019-04-29T01:28:22.030Z,94355.36
2019-04-29T01:31:13.945Z,94352.84
2019-04-29T01:33:44.581Z,94350.05
2019-04-29T01:36:46.237Z,94341.59
2019-04-29T01:39:17.411Z,94349.78
2019-04-29T01:42:05.177Z,94341.78
2019-04-29T01:44:37.249Z,94335.30
2019-04-29T01:47:07.920Z,94343.87
2019-04-29T01:49:38.309Z,94342.11
2019-04-29T01:52:08.686Z,94332.34
2019-04-29T01:54:39.355Z,94335.28
2019-04-29T01:57:09.723Z,94339.75
2019-04-29T01:59:41.338Z,94345.42
2019-04-29T02:02:12.130Z,94346.52
2019-04-29T02:04:42.457Z,94348.05
2019-04-29T02:07:13.191Z,94344.63
2019-04-29T02:10:02.401Z,94349.05
2019-04-29T02:12:33.231Z,94349.11
2019-04-29T02:15:04.144Z,94345.87
2019-04-29T02:17:34.529Z,94353.95
2019-04-29T02:20:05.478Z,94344.79
2019-04-29T02:22:57.921Z,94350.06
2019-04-29T02:25:32.901Z,94354.55
2019-04-29T02:28:04.307Z,94351.61
2019-04-29T02:30:42.227Z,94347.53
2019-04-29T02:33:12.552Z,94345.89
2019-04-29T02:35:42.823Z,94339.38
2019-04-29T02:38:21.494Z,94347.73
2019-04-29T02:41:00.798Z,94348.23
2019-04-29T02:43:33.385Z,94345.58
2019-04-29T02:46:03.672Z,94332.80
2019-04-29T02:48:34.945Z,94332.80
2019-04-29T02:51:05.781Z,94336.33
2019-04-29T02:53:36.099Z,94343.63
2019-04-29T02:56:06.394Z,94335.45
2019-04-29T02:58:48.890Z,94337.77
2019-04-29T03:01:41.085Z,94340.88
2019-04-29T03:04:25.973Z,94336.30
2019-04-29T03:06:56.628Z,94330.34
2019-04-29T03:09:27.321Z,94337.11
2019-04-29T03:12:01.613Z,94342.33
2019-04-29T03:14:30.119Z,94344.45
2019-04-29T03:17:00.394Z,94349.81
2019-04-29T03:19:35.030Z,94354.41
2019-04-29T03:22:06.720Z,94359.95
2019-04-29T03:24:37.027Z,94359.08
2019-04-29T03:27:08.657Z,94367.13
2019-04-29T03:29:39.178Z,94360.39
2019-04-29T03:32:09.470Z,94368.99
2019-04-29T03:34:40.206Z,94376.09
2019-04-29T03:37:10.882Z,94374.61
2019-04-29T03:39:41.188Z,94375.30
2019-04-29T03:42:11.831Z,94365.19
2019-04-29T03:44:42.228Z,94359.94
2019-04-29T03:47:12.963Z,94363.22
2019-04-29T03:49:43.620Z,94364.91
2019-04-29T03:52:13.936Z,94362.22
2019-04-29T03:54:44.480Z,94360.45
2019-04-29T03:57:16.561Z,94363.56
2019-04-29T03:59:46.853Z,94372.68
2019-04-29T04:02:25.894Z,94367.61
2019-04-29T04:05:15.564Z,94369.47
2019-04-29T04:07:56.706Z,94367.94
2019-04-29T04:10:28.001Z,94374.46
2019-04-29T04:12:58.743Z,94379.24
2019-04-29T04:15:29.110Z,94383.27
2019-04-29T04:18:04.931Z,94388.63
2019-04-29T04:20:35.244Z,94384.20
2019-04-29T04:23:05.605Z,94387.80
2019-04-29T04:25:36.248Z,94381.78
2019-04-29T04:28:06.541Z,94371.93
2019-04-29T04:30:36.864Z,94372.73
2019-04-29T04:33:07.609Z,94372.50
2019-04-29T04:35:37.913Z,94376.29
2019-04-29T04:38:08.202Z,94361.80
2019-04-29T04:40:43.711Z,94369.98
2019-04-29T04:43:14.168Z,94372.90
2019-04-29T04:45:44.623Z,94371.32
2019-04-29T04:48:15.272Z,94369.91
2019-04-29T04:50:45.598Z,94369.41
2019-04-29T04:53:15.974Z,94366.98
2019-04-29T04:55:47.968Z,94370.16
2019-04-29T04:58:18.243Z,94368.72
2019-04-29T05:00:49.102Z,94363.11
2019-04-29T05:03:19.531Z,94368.63
2019-04-29T05:05:50.059Z,94362.00
2019-04-29T05:08:20.438Z,94356.81
2019-04-29T05:10:50.847Z,94359.73
2019-04-29T05:13:28.120Z,94364.02
2019-04-29T05:15:53.223Z,94359.24
2019-04-29T05:18:23.665Z,94368.59
2019-04-29T05:20:53.976Z,94365.27
2019-04-29T05:23:24.545Z,94361.95
2019-04-29T05:25:54.822Z,94363.83
2019-04-29T05:28:25.400Z,94359.97
2019-04-29T05:30:56.027Z,94360.77
2019-04-29T05:33:26.335Z,94351.07
2019-04-29T05:36:10.967Z,94359.42
2019-04-29T05:38:48.692Z,94356.02
2019-04-29T05:41:19.802Z,94361.24
2019-04-29T05:43:57.032Z,94363.34
2019-04-29T05:46:36.086Z,94369.89
2019-04-29T05:49:09.016Z,94363.83
2019-04-29T05:51:57.449Z,94364.27
2019-04-29T05:54:26.839Z,94359.02
2019-04-29T05:56:58.343Z,94366.08
2019-04-29T05:59:28.657Z,94361.52
2019-04-29T06:01:59.355Z,94357.55
2019-04-29T06:04:29.825Z,94362.48
2019-04-29T06:07:00.196Z,94360.17
2019-04-29T06:09:30.814Z,94361.65
2019-04-29T06:12:01.522Z,94365.77
2019-04-29T06:14:31.860Z,94362.31
2019-04-29T06:17:04.893Z,94359.66
2019-04-29T06:19:35.122Z,94363.73
2019-04-29T06:22:06.768Z,94366.45
2019-04-29T06:24:41.055Z,94373.77
2019-04-29T06:27:09.202Z,94371.55
2019-04-29T06:29:39.696Z,94362.23
2019-04-29T06:32:10.386Z,94363.92
2019-04-29T06:34:41.801Z,94363.63
2019-04-29T06:37:12.475Z,94360.22
2019-04-29T06:39:42.912Z,94355.23
2019-04-29T06:42:15.512Z,94355.67
2019-04-29T06:44:49.004Z,94354.98
2019-04-29T06:47:17.638Z,94350.19
2019-04-29T06:49:48.135Z,94345.39
2019-04-29T06:52:18.418Z,94348.55
2019-04-29T06:54:49.017Z,94348.31
2019-04-29T06:57:19.315Z,94343.19
2019-04-29T06:59:49.879Z,94344.87
2019-04-29T07:02:21.448Z,94344.03
2019-04-29T07:04:51.937Z,94343.55
2019-04-29T07:07:24.983Z,94343.22
2019-04-29T07:09:56.947Z,94341.14
2019-04-29T07:12:27.457Z,94335.54
2019-04-29T07:14:58.242Z,94331.95
2019-04-29T07:17:28.513Z,94329.77
2019-04-29T07:20:02.017Z,94325.55
2019-04-29T07:22:31.272Z,94330.72
2019-04-29T07:25:01.844Z,94325.25
2019-04-29T07:27:34.850Z,94324.56
2019-04-29T07:30:06.627Z,94327.05
2019-04-29T07:32:36.887Z,94328.16
2019-04-29T07:35:09.841Z,94325.48
2019-04-29T07:37:39.981Z,94328.52
2019-04-29T07:40:10.712Z,94327.95
2019-04-29T07:42:41.328Z,94326.70
2019-04-29T07:45:44.318Z,94329.34
2019-04-29T07:48:12.140Z,94316.98
2019-04-29T07:50:42.562Z,94316.98
2019-04-29T07:53:13.214Z,94316.54
2019-04-29T07:55:43.530Z,94310.13
2019-04-29T07:58:14.190Z,94317.66
2019-04-29T08:00:48.750Z,94312.38
2019-04-29T08:03:16.843Z,94315.51
2019-04-29T08:05:47.904Z,94311.78
2019-04-29T08:08:21.304Z,94313.74
2019-04-29T08:10:56.168Z,94313.74
2019-04-29T08:13:25.504Z,94311.68
2019-04-29T08:15:55.843Z,94308.70
2019-04-29T08:18:26.213Z,94307.02
2019-04-29T08:20:56.625Z,94308.76
2019-04-29T08:23:26.886Z,94315.11
2019-04-29T08:26:02.571Z,94308.63
2019-04-29T08:28:29.762Z,94300.67
2019-04-29T08:31:00.080Z,94319.19
2019-04-29T08:33:30.441Z,94302.44
2019-04-29T08:36:01.019Z,94302.44
2019-04-29T08:38:31.667Z,94299.47
2019-04-29T08:41:02.299Z,94299.03
2019-04-29T08:44:14.686Z,94290.39
2019-04-29T08:46:37.241Z,94287.38
2019-04-29T08:49:07.779Z,94288.74
2019-04-29T08:51:38.126Z,94288.05
2019-04-29T08:54:08.372Z,94290.38
2019-04-29T08:56:42.465Z,94284.91
2019-04-29T08:59:10.871Z,94277.39
2019-04-29T09:01:41.162Z,94278.77
2019-04-29T09:04:11.895Z,94273.11
2019-04-29T09:06:42.399Z,94271.11
2019-04-29T09:09:27.943Z,94270.10
2019-04-29T09:11:47.986Z,94266.53
2019-04-29T09:14:17.064Z,94259.98
2019-04-29T09:16:47.898Z,94263.12
2019-04-29T09:19:18.106Z,94245.45
2019-04-29T09:21:51.150Z,94248.84
2019-04-29T09:24:21.763Z,94246.77
2019-04-29T09:26:58.027Z,94245.48
2019-04-29T09:29:32.601Z,94235.65
2019-04-29T09:32:03.902Z,94244.03
2019-04-29T09:34:34.721Z,94239.02
2019-04-29T09:37:05.357Z,94241.66
2019-04-29T09:39:43.464Z,94234.88
2019-04-29T09:42:36.362Z,94231.37
2019-04-29T09:45:22.092Z,94226.70
2019-04-29T09:47:50.880Z,94222.86
2019-04-29T09:50:22.124Z,94222.15
2019-04-29T09:52:52.835Z,94215.44
2019-04-29T09:55:24.314Z,94211.21
2019-04-29T09:57:54.677Z,94205.75
2019-04-29T10:00:40.753Z,94208.98
2019-04-29T10:03:43.054Z,94201.83
2019-04-29T10:06:20.024Z,94194.05
2019-04-29T10:08:50.596Z,94194.55
2019-04-29T10:11:21.312Z,94191.45
2019-04-29T10:13:52.562Z,94190.36
2019-04-29T10:16:35.959Z,94187.28
2019-04-29T10:19:22.691Z,94190.36
2019-04-29T10:21:52.977Z,94180.27
2019-04-29T10:24:23.289Z,94179.81
2019-04-29T10:26:53.958Z,94171.08
2019-04-29T10:29:26.411Z,94167.64
2019-04-29T10:31:56.702Z,94166.64
2019-04-29T10:34:31.559Z,94169.75
2019-04-29T10:36:59.751Z,94163.41
2019-04-29T10:39:47.763Z,94156.48
2019-04-29T10:42:24.889Z,94159.38
2019-04-29T10:45:17.277Z,94148.13
2019-04-29T10:48:03.537Z,94138.02
2019-04-29T10:50:36.193Z,94129.23
2019-04-29T10:53:11.091Z,94124.41
2019-04-29T10:55:41.290Z,94124.41
2019-04-29T10:58:11.882Z,94111.27
2019-04-29T11:01:29.186Z,94114.49
2019-04-29T11:04:02.345Z,94120.96
2019-04-29T11:06:35.833Z,94115.77
2019-04-29T11:09:27.434Z,94106.12
2019-04-29T11:11:58.048Z,94095.68
2019-04-29T11:14:33.065Z,94101.91
2019-04-29T11:17:01.548Z,94103.18
2019-04-29T11:19:35.098Z,94104.92
2019-04-29T11:22:03.860Z,94108.53
2019-04-29T11:24:56.303Z,94100.06
2019-04-29T11:27:30.753Z,94099.50
2019-04-29T11:30:03.082Z,94094.56
2019-04-29T11:32:42.721Z,94092.98
2019-04-29T11:35:24.549Z,94083.03
2019-04-29T11:37:55.421Z,94085.16
2019-04-29T11:40:42.641Z,94092.33
2019-04-29T11:42:57.792Z,94088.11
2019-04-29T11:45:28.171Z,94095.38
2019-04-29T11:47:58.455Z,94092.34
2019-04-29T11:50:49.409Z,94084.09
2019-04-29T11:53:17.088Z,94075.12
2019-04-29T11:55:47.873Z,94071.67
2019-04-29T11:58:33.364Z,94068.58
2019-04-29T12:01:39.254Z,94062.38
2019-04-29T12:04:15.392Z,94067.62
2019-04-29T12:06:45.805Z,94061.67
2019-04-29T12:09:16.824Z,94063.63
2019-04-29T12:11:47.756Z,94038.44
2019-04-29T12:14:24.372Z,94024.97
2019-04-29T12:17:13.469Z,94024.30
2019-04-29T12:19:44.565Z,94023.44
2019-04-29T12:22:26.814Z,94018.55
2019-04-29T12:24:46.903Z,94027.87
2019-04-29T12:27:19.850Z,94027.26
2019-04-29T12:29:54.437Z,94020.73
2019-04-29T12:33:01.454Z,94023.72
2019-04-29T12:35:52.298Z,94031.59
2019-04-29T12:38:39.824Z,94018.78
2019-04-29T12:41:29.855Z,94009.34
2019-04-29T12:44:01.759Z,93997.87
2019-04-29T12:46:36.652Z,94008.77
2019-04-29T12:49:08.547Z,94004.48
2019-04-29T12:51:38.935Z,94003.16
2019-04-29T12:54:09.663Z,93998.58
2019-04-29T12:56:43.157Z,93996.14
2019-04-29T12:59:13.426Z,93998.45
2019-04-29T13:02:00.686Z,93999.45
2019-04-29T13:05:05.669Z,93990.21
2019-04-29T13:07:58.534Z,93980.51
2019-04-29T13:10:57.034Z,93983.17
2019-04-29T13:13:27.448Z,93986.52
2019-04-29T13:16:26.349Z,93976.53
2019-04-29T13:19:12.477Z,93987.16
2019-04-29T13:21:41.015Z,93980.63
2019-04-29T13:24:22.408Z,93971.17
2019-04-29T13:26:43.833Z,93964.56
2019-04-29T13:29:26.370Z,93968.20
2019-04-29T13:31:47.736Z,93972.42
2019-04-29T13:34:24.893Z,93965.46
2019-04-29T13:37:07.131Z,93961.54
2019-04-29T13:39:39.240Z,93971.86
2019-04-29T13:42:02.906Z,93965.01
2019-04-29T13:44:41.679Z,93975.97
2019-04-29T13:47:31.143Z,93966.11
2019-04-29T13:50:17.803Z,93965.56
2019-04-29T13:52:39.873Z,93951.63
2019-04-29T13:55:17.823Z,93956.83
2019-04-29T13:57:45.041Z,93943.75
2019-04-29T14:00:36.383Z,93945.20
2019-04-29T14:03:16.533Z,93943.98
2019-04-29T14:05:46.806Z,93946.25
2019-04-29T14:08:17.286Z,93947.47
2019-04-29T14:10:51.090Z,93943.28
2019-04-29T14:13:21.199Z,93943.89
2019-04-29T14:15:51.797Z,93944.20
2019-04-29T14:18:22.112Z,93938.07
2019-04-29T14:20:53.128Z,93935.69
2019-04-29T14:23:23.989Z,93939.20
2019-04-29T14:25:54.350Z,93926.96
2019-04-29T14:28:24.776Z,93925.63
2019-04-29T14:30:55.855Z,93920.99
2019-04-29T14:33:31.001Z,93927.76
2019-04-29T14:36:07.678Z,93928.52
2019-04-29T14:38:40.812Z,93922.27
2019-04-29T14:41:14.082Z,93913.88
2019-04-29T14:43:58.296Z,93914.08
2019-04-29T14:46:39.394Z,93926.89
2019-04-29T14:49:13.474Z,93933.77
2019-04-29T14:51:43.715Z,93933.77
2019-04-29T14:54:14.348Z,93931.45
2019-04-29T14:56:45.037Z,93929.30
2019-04-29T14:59:15.577Z,93927.45
2019-04-29T15:02:17.365Z,93936.99
2019-04-29T15:04:46.236Z,93937.23
2019-04-29T15:07:16.630Z,93930.61
2019-04-29T15:09:58.282Z,93955.03
2019-04-29T15:12:51.978Z,93930.15
2019-04-29T15:15:34.166Z,93938.53
2019-04-29T15:18:23.944Z,93927.67
2019-04-29T15:21:06.191Z,93939.98
2019-04-29T15:23:37.308Z,93932.04
2019-04-29T15:26:07.986Z,93935.89
2019-04-29T15:28:51.100Z,93941.28
2019-04-29T15:31:25.547Z,93944.80
2019-04-29T15:33:56.316Z,93930.91
2019-04-29T15:36:26.598Z,93936.82
2019-04-29T15:39:08.877Z,93937.51
2019-04-29T15:41:30.994Z,93931.48
2019-04-29T15:44:07.607Z,93932.36
2019-04-29T15:46:45.507Z,93931.97
2019-04-29T15:49:05.525Z,93924.63
2019-04-29T15:51:35.955Z,93925.93
2019-04-29T15:54:09.194Z,93923.45
2019-04-29T15:56:39.802Z,93924.97
2019-04-29T15:59:10.471Z,93931.72
2019-04-29T16:01:41.986Z,93926.69
2019-04-29T16:04:20.876Z,93932.59
2019-04-29T16:07:07.511Z,93931.33
2019-04-29T16:09:55.078Z,93936.47
2019-04-29T16:12:30.836Z,93931.75
2019-04-29T16:15:01.159Z,93934.16
2019-04-29T16:17:37.984Z,93941.58
2019-04-29T16:20:04.900Z,93939.16
2019-04-29T16:22:39.100Z,93935.81
2019-04-29T16:25:11.112Z,93944.16
2019-04-29T16:27:48.903Z,93942.23
2019-04-29T16:30:18.601Z,93943.05
2019-04-29T16:32:45.899Z,93947.56
2019-04-29T16:35:23.278Z,93945.21
2019-04-29T16:37:50.959Z,93947.56
2019-04-29T16:40:21.758Z,93958.15
2019-04-29T16:43:09.230Z,93950.05
2019-04-29T16:46:05.931Z,93951.19
2019-04-29T16:48:36.574Z,93954.27
2019-04-29T16:53:39.164Z,93943.30
2019-04-29T16:56:15.772Z,93962.28
2019-04-29T16:58:41.847Z,93963.73
2019-04-29T17:01:12.532Z,93961.39
2019-04-29T17:03:42.916Z,93970.41
2019-04-29T17:06:13.414Z,93966.24
2019-04-29T17:09:22.960Z,93961.03
2019-04-29T17:11:50.768Z,93969.81
2019-04-29T17:14:22.355Z,93975.99
2019-04-29T17:16:52.730Z,93969.48
2019-04-29T17:19:23.047Z,93972.30
2019-04-29T17:21:53.340Z,93975.66
2019-04-29T17:24:24.001Z,93973.55
2019-04-29T17:27:12.234Z,93979.23
2019-04-29T17:30:03.366Z,93978.84
2019-04-29T17:32:44.432Z,93979.61
2019-04-29T17:35:12.984Z,93982.80
2019-04-29T17:35:15.896Z,93950.72
2019-04-29T17:37:44.695Z,93977.89
2019-04-29T17:40:19.375Z,93985.77
2019-04-29T17:42:54.741Z,93983.52
2019-04-29T17:45:32.727Z,93983.57
2019-04-29T17:48:33.963Z,93986.77
2019-04-29T17:51:07.047Z,93989.17
2019-04-29T17:53:42.483Z,93989.18
2019-04-29T17:56:35.152Z,93991.45
2019-04-29T17:59:29.605Z,93990.34
2019-04-29T18:02:29.760Z,93710.81
2019-04-29T18:05:52.899Z,93989.13
2019-04-29T18:08:17.913Z,93997.29
2019-04-29T18:10:52.539Z,94003.95
2019-04-29T18:13:24.589Z,93999.14
2019-04-29T18:16:03.183Z,94009.42
2019-04-29T18:18:46.185Z,94010.59
2019-04-29T18:21:25.753Z,94006.83
2019-04-29T18:24:21.370Z,94018.98
2019-04-29T18:27:03.726Z,94022.50
2019-04-29T18:29:34.851Z,94037.36
2019-04-29T18:32:07.988Z,94029.78
2019-04-29T18:34:38.980Z,94042.23
2019-04-29T18:37:09.280Z,94040.48
2019-04-29T18:39:39.765Z,94039.34
2019-04-29T18:42:10.295Z,94045.23
2019-04-29T18:44:54.100Z,94043.72
2019-04-29T18:47:20.674Z,94043.50
2019-04-29T18:49:47.316Z,94044.76
2019-04-29T18:52:25.390Z,94047.83
2019-04-29T18:54:50.460Z,94051.53
2019-04-29T18:57:28.656Z,94041.98
2019-04-29T18:59:54.860Z,94053.41
2019-04-29T19:02:27.408Z,94054.14
2019-04-29T19:05:09.000Z,94056.97
2019-04-29T19:07:39.816Z,94046.88
2019-04-29T19:10:14.346Z,94047.27
2019-04-29T19:12:44.586Z,94049.20
2019-04-29T19:15:17.665Z,94045.73
2019-04-29T19:17:58.798Z,94053.47
2019-04-29T19:20:19.350Z,94045.75
2019-04-29T19:22:55.729Z,94043.72
2019-04-29T19:25:22.217Z,94045.94
2019-04-29T19:27:52.972Z,94038.22
2019-04-29T19:30:27.001Z,94037.28
2019-04-29T19:33:00.283Z,94038.95
2019-04-29T19:35:29.578Z,94040.02
2019-04-29T19:38:00.085Z,94043.02
2019-04-29T19:40:38.878Z,94038.88
2019-04-29T19:43:03.745Z,94045.59
2019-04-29T19:45:34.119Z,94048.39
2019-04-29T19:48:05.939Z,94035.72
2019-04-29T19:50:36.441Z,94036.98
2019-04-29T19:53:07.259Z,94033.45
2019-04-29T19:55:41.940Z,94033.58
2019-04-29T19:58:12.437Z,94036.50
2019-04-29T20:00:42.634Z,94040.02
2019-04-29T20:03:23.030Z,94034.46
2019-04-29T20:05:50.566Z,94028.22
2019-04-29T20:08:41.280Z,94035.19
2019-04-29T20:10:56.509Z,94030.33
2019-04-29T20:13:31.483Z,94037.19
2019-04-29T20:16:22.582Z,94028.89
2019-04-29T20:19:02.615Z,94040.87
2019-04-29T20:21:36.264Z,94028.91
2019-04-29T20:24:09.819Z,94033.52
2019-04-29T20:26:39.765Z,94030.64
2019-04-29T20:29:11.529Z,94031.88
2019-04-29T20:31:48.665Z,94036.98
2019-04-29T20:34:20.303Z,94038.08
2019-04-29T20:36:46.600Z,94040.27
2019-04-29T20:39:23.065Z,94029.59
2019-04-29T20:41:49.602Z,94040.63
2019-04-29T20:44:20.010Z,94041.45
2019-04-29T20:47:12.736Z,94039.56
2019-04-29T20:49:22.771Z,94032.41
2019-04-29T20:51:58.134Z,94029.34
2019-04-29T20:54:30.193Z,94037.99
2019-04-29T20:57:04.826Z,94024.53
2019-04-29T20:59:33.220Z,94046.75
2019-04-29T21:02:12.588Z,94039.45
2019-04-29T21:04:55.350Z,94045.27
2019-04-29T21:07:09.930Z,94045.14
2019-04-29T21:09:40.619Z,94045.14
2019-04-29T21:12:33.947Z,94037.52
2019-04-29T21:15:09.388Z,94040.37
2019-04-29T21:17:40.290Z,94040.77
2019-04-29T21:20:09.094Z,94045.50
2019-04-29T21:22:39.579Z,94052.94
2019-04-29T21:25:09.966Z,94053.45
2019-04-29T21:27:40.689Z,94044.05
2019-04-29T21:30:11.685Z,94049.16
2019-04-29T21:32:41.970Z,94049.30
2019-04-29T21:35:31.825Z,94044.77
2019-04-29T21:38:22.403Z,94067.66
2019-04-29T21:40:57.985Z,94056.69
2019-04-29T21:43:29.472Z,94055.43
2019-04-29T21:45:59.893Z,94059.98
2019-04-29T21:48:34.204Z,94063.30
2019-04-29T21:51:02.212Z,94063.62
2019-04-29T21:53:36.518Z,94061.50
2019-04-29T21:56:09.182Z,94062.12
2019-04-29T21:58:37.503Z,94061.33
2019-04-29T22:01:08.381Z,94065.60
2019-04-29T22:03:39.114Z,94073.84
2019-04-29T22:06:09.899Z,94067.10
2019-04-29T22:08:40.225Z,94066.16
2019-04-29T22:11:10.632Z,94062.33
2019-04-29T22:13:41.484Z,94061.25
2019-04-29T22:16:15.930Z,94067.45
2019-04-29T22:18:44.610Z,94068.81
2019-04-29T22:21:22.214Z,94060.80
2019-04-29T22:23:51.004Z,94065.34
2019-04-29T22:26:23.242Z,94065.47
2019-04-29T22:28:57.922Z,94062.49
2019-04-29T22:31:26.894Z,94058.03
2019-04-29T22:33:57.556Z,94072.23
2019-04-29T22:36:27.904Z,94075.59
2019-04-29T22:38:58.244Z,94072.03
2019-04-29T22:41:39.232Z,94065.59
2019-04-29T22:44:09.782Z,94066.30
2019-04-29T22:46:44.076Z,94070.25
2019-04-29T22:49:12.278Z,94064.27
2019-04-29T22:51:42.828Z,94061.91
2019-04-29T22:54:13.096Z,94061.20
2019-04-29T22:56:45.598Z,94055.34
2019-04-29T22:59:19.133Z,94057.33
2019-04-29T23:01:50.499Z,94056.12
2019-04-29T23:04:20.418Z,94059.69
2019-04-29T23:06:50.746Z,94055.98
2019-04-29T23:09:21.420Z,94048.75
2019-04-29T23:11:51.793Z,94045.89
2019-04-29T23:14:22.087Z,94056.00
2019-04-29T23:16:52.713Z,94057.56
2019-04-29T23:19:23.330Z,94046.27
2019-04-29T23:22:23.831Z,94052.26
2019-04-29T23:25:03.119Z,94058.66
2019-04-29T23:27:35.916Z,94053.92
2019-04-29T23:30:07.513Z,94054.46
2019-04-29T23:32:39.506Z,94052.04
2019-04-29T23:35:10.445Z,94056.89
2019-04-29T23:37:40.767Z,94054.83
2019-04-29T23:40:11.161Z,94058.36
2019-04-29T23:42:43.768Z,94052.67
2019-04-29T23:45:20.766Z,94045.59
2019-04-29T23:47:49.278Z,94046.38
2019-04-29T23:50:20.282Z,94053.99
2019-04-29T23:52:52.022Z,94059.67
2019-04-29T23:55:25.649Z,94052.73
2019-04-29T23:58:13.669Z,94042.44
